createdAt,value
2022-11-10T00:02:29.824Z,100803.78
2022-11-10T00:05:50.617Z,100802.22
2022-11-10T00:09:11.414Z,100807.31
2022-11-10T00:12:33.203Z,100798.59
2022-11-10T00:16:12.843Z,100814.81
2022-11-10T00:19:34.710Z,100814.00
2022-11-10T00:22:56.130Z,100816.53
2022-11-10T00:26:18.525Z,100821.22
2022-11-10T00:29:39.335Z,100818.69
2022-11-10T00:32:59.967Z,100827.56
2022-11-10T00:36:20.737Z,100834.47
2022-11-10T00:39:41.578Z,100829.09
2022-11-10T00:43:02.548Z,100827.47
2022-11-10T00:46:23.342Z,100827.56
2022-11-10T00:49:43.970Z,100832.06
2022-11-10T00:53:04.874Z,100836.34
2022-11-10T00:56:25.893Z,100832.12
2022-11-10T00:59:46.718Z,100830.97
2022-11-10T01:03:07.524Z,100833.53
2022-11-10T01:06:29.614Z,100828.22
2022-11-10T01:09:50.166Z,100822.09
2022-11-10T01:13:10.974Z,100829.09
2022-11-10T01:16:32.052Z,100819.50
2022-11-10T01:19:52.655Z,100822.25
2022-11-10T01:23:13.196Z,100811.81
2022-11-10T01:26:33.923Z,100820.53
2022-11-10T01:29:55.011Z,100816.78
2022-11-10T01:33:17.710Z,100819.38
2022-11-10T01:36:38.149Z,100818.69
2022-11-10T01:39:59.648Z,100828.44
2022-11-10T01:43:20.821Z,100828.44
2022-11-10T01:46:41.919Z,100832.78
2022-11-10T01:50:02.907Z,100824.22
2022-11-10T01:53:25.086Z,100831.91
2022-11-10T01:56:47.795Z,100831.06
2022-11-10T02:00:09.209Z,100823.25
2022-11-10T02:03:42.811Z,100828.28
2022-11-10T02:07:04.405Z,100822.25
2022-11-10T02:10:25.448Z,100830.88
2022-11-10T02:13:46.265Z,100827.47
2022-11-10T02:17:07.305Z,100830.88
2022-11-10T02:20:28.257Z,100832.66
2022-11-10T02:23:50.796Z,100830.91
2022-11-10T02:27:11.687Z,100834.22
2022-11-10T02:30:32.841Z,100841.19
2022-11-10T02:33:53.489Z,100834.22
2022-11-10T02:37:14.226Z,100845.25
2022-11-10T02:40:34.845Z,100837.78
2022-11-10T02:43:56.962Z,100847.34
2022-11-10T02:47:17.629Z,100851.44
2022-11-10T02:50:38.371Z,100854.19
2022-11-10T02:53:59.112Z,100857.63
2022-11-10T02:57:19.876Z,100853.22
2022-11-10T03:00:41.041Z,100857.66
2022-11-10T03:04:01.794Z,100866.28
2022-11-10T03:07:22.584Z,100868.00
2022-11-10T03:10:43.460Z,100876.63
2022-11-10T03:14:04.026Z,100874.75
2022-11-10T03:17:24.930Z,100872.97
2022-11-10T03:20:47.019Z,100878.28
2022-11-10T03:24:07.869Z,100880.31
2022-11-10T03:27:28.626Z,100878.69
2022-11-10T03:30:49.423Z,100887.66
2022-11-10T03:34:10.404Z,100897.87
2022-11-10T03:37:31.361Z,100895.41
2022-11-10T03:44:33.296Z,100895.91
2022-11-10T03:47:54.184Z,100896.34
2022-11-10T03:51:15.116Z,100898.47
2022-11-10T03:54:35.724Z,100900.16
2022-11-10T03:57:56.272Z,100902.22
2022-11-10T04:01:17.054Z,100905.06
2022-11-10T04:04:56.597Z,100909.41
2022-11-10T04:08:36.407Z,100911.63
2022-11-10T04:12:19.491Z,100901.37
2022-11-10T04:15:42.703Z,100910.00
2022-11-10T04:19:04.076Z,100913.09
2022-11-10T04:22:43.402Z,100917.44
2022-11-10T04:26:24.664Z,100920.03
2022-11-10T04:29:45.448Z,100926.66
2022-11-10T04:33:07.018Z,100923.00
2022-11-10T04:36:28.926Z,100931.69
2022-11-10T04:39:49.452Z,100940.31
2022-11-10T04:43:10.373Z,100934.94
2022-11-10T04:46:40.484Z,100935.81
2022-11-10T04:50:01.036Z,100925.47
2022-11-10T04:53:22.568Z,100926.13
2022-11-10T04:56:43.610Z,100932.88
2022-11-10T05:00:04.972Z,100931.16
2022-11-10T05:03:26.606Z,100941.81
2022-11-10T05:06:47.450Z,100947.81
2022-11-10T05:10:08.353Z,100955.56
2022-11-10T05:13:29.236Z,100965.06
2022-11-10T05:16:49.724Z,100970.94
2022-11-10T05:20:10.400Z,100960.56
2022-11-10T05:23:40.352Z,100973.56
2022-11-10T05:27:01.276Z,100971.16
2022-11-10T05:30:23.782Z,100975.41
2022-11-10T05:33:44.528Z,100973.59
2022-11-10T05:37:05.397Z,100978.84
2022-11-10T05:40:26.249Z,100987.56
2022-11-10T05:43:47.446Z,100993.75
2022-11-10T05:47:08.913Z,101001.59
2022-11-10T05:50:29.743Z,101006.53
2022-11-10T05:53:50.450Z,101013.19
2022-11-10T05:57:11.307Z,101015.72
2022-11-10T06:00:33.291Z,101019.28
2022-11-10T06:03:54.320Z,101020.91
2022-11-10T06:07:15.079Z,101028.72
2022-11-10T06:10:36.919Z,101034.69
2022-11-10T06:13:57.409Z,101037.06
2022-11-10T06:17:18.740Z,101044.06
2022-11-10T06:20:39.537Z,101052.84
2022-11-10T06:24:00.324Z,101055.28
2022-11-10T06:27:21.251Z,101058.75
2022-11-10T06:30:42.275Z,101071.50
2022-11-10T06:34:02.919Z,101073.28
2022-11-10T06:37:23.631Z,101085.31
2022-11-10T06:40:44.333Z,101081.78
2022-11-10T06:44:06.422Z,101092.84
2022-11-10T06:47:27.578Z,101089.38
2022-11-10T06:50:48.540Z,101098.75
2022-11-10T06:54:09.106Z,101099.44
2022-11-10T06:57:30.086Z,101101.87
2022-11-10T07:00:51.149Z,101125.22
2022-11-10T07:04:19.752Z,101123.38
2022-11-10T07:07:41.415Z,101123.56
2022-11-10T07:11:02.424Z,101125.84
2022-11-10T07:14:23.036Z,101132.09
2022-11-10T07:17:43.815Z,101136.31
2022-11-10T07:21:05.181Z,101141.47
2022-11-10T07:24:26.271Z,101139.59
2022-11-10T07:27:52.836Z,101139.59
2022-11-10T07:31:13.852Z,101149.28
2022-11-10T07:34:34.483Z,101150.09
2022-11-10T07:37:55.857Z,101151.00
2022-11-10T07:41:17.303Z,101159.47
2022-11-10T07:44:37.952Z,101167.00
2022-11-10T07:48:02.555Z,101182.16
2022-11-10T07:51:23.551Z,101173.13
2022-11-10T07:54:44.302Z,101180.88
2022-11-10T07:58:05.232Z,101182.87
2022-11-10T08:01:26.092Z,101188.72
2022-11-10T08:04:46.888Z,101181.75
2022-11-10T08:08:08.282Z,101187.19
2022-11-10T08:11:29.281Z,101184.94
2022-11-10T08:14:49.979Z,101190.16
2022-11-10T08:18:21.509Z,101201.25
2022-11-10T08:21:42.262Z,101201.28
2022-11-10T08:25:02.918Z,101204.38
2022-11-10T08:28:23.824Z,101205.47
2022-11-10T08:31:44.807Z,101209.47
2022-11-10T08:35:05.790Z,101213.59
2022-11-10T08:38:26.232Z,101213.91
2022-11-10T08:41:47.195Z,101224.16
2022-11-10T08:45:07.982Z,101232.22
2022-11-10T08:48:28.559Z,101232.41
2022-11-10T08:51:49.151Z,101246.59
2022-11-10T08:55:10.010Z,101241.13
2022-11-10T08:58:31.212Z,101251.84
2022-11-10T09:01:51.756Z,101255.34
2022-11-10T09:05:12.337Z,101267.41
2022-11-10T09:08:34.082Z,101266.78
2022-11-10T09:11:54.919Z,101275.38
2022-11-10T09:15:15.919Z,101277.22
2022-11-10T09:18:37.386Z,101279.56
2022-11-10T09:21:58.041Z,101287.13
2022-11-10T09:25:18.706Z,101292.00
2022-11-10T09:28:39.488Z,101283.63
2022-11-10T09:32:00.129Z,101297.53
2022-11-10T09:35:21.441Z,101296.50
2022-11-10T09:38:42.399Z,101300.19
2022-11-10T09:42:20.724Z,101296.03
2022-11-10T09:45:44.784Z,101299.91
2022-11-10T09:49:11.567Z,101311.09
2022-11-10T09:52:34.692Z,101316.75
2022-11-10T09:55:59.422Z,101316.53
2022-11-10T09:59:24.778Z,101315.03
2022-11-10T10:02:50.759Z,101316.09
2022-11-10T10:06:13.036Z,101301.00
2022-11-10T10:09:36.569Z,101301.19
2022-11-10T10:13:20.520Z,101308.22
2022-11-10T10:16:44.051Z,101306.81
2022-11-10T10:20:23.330Z,101314.16
2022-11-10T10:24:21.240Z,101317.44
2022-11-10T10:27:41.482Z,101311.97
2022-11-10T10:31:11.234Z,101326.34
2022-11-10T10:34:34.499Z,101329.41
2022-11-10T10:37:56.693Z,101330.00
2022-11-10T10:41:30.737Z,101325.94
2022-11-10T10:45:23.916Z,101334.63
2022-11-10T10:48:50.447Z,101337.91
2022-11-10T10:52:11.557Z,101331.66
2022-11-10T10:55:32.921Z,101338.78
2022-11-10T10:58:54.308Z,101337.97
2022-11-10T11:02:24.418Z,101331.75
2022-11-10T11:05:59.314Z,101333.91
2022-11-10T11:09:24.153Z,101331.78
2022-11-10T11:12:44.827Z,101337.06
2022-11-10T11:16:07.865Z,101341.00
2022-11-10T11:19:36.150Z,101345.53
2022-11-10T11:22:59.595Z,101339.22
2022-11-10T11:26:39.177Z,101343.09
2022-11-10T11:30:05.995Z,101355.75
2022-11-10T11:33:35.924Z,101368.75
2022-11-10T11:37:09.833Z,101374.84
2022-11-10T11:40:47.365Z,101382.66
2022-11-10T11:44:24.563Z,101379.81
2022-11-10T11:47:47.823Z,101383.31
2022-11-10T11:51:26.888Z,101390.03
2022-11-10T11:55:13.881Z,101380.16
2022-11-10T11:58:45.072Z,101377.59
2022-11-10T12:02:23.759Z,101368.97
2022-11-10T12:05:46.925Z,101385.31
2022-11-10T12:09:13.567Z,101393.28
2022-11-10T12:12:54.796Z,101393.41
2022-11-10T12:16:15.927Z,101391.78
2022-11-10T12:19:41.719Z,101391.72
2022-11-10T12:23:05.543Z,101398.50
2022-11-10T12:26:29.001Z,101395.72
2022-11-10T12:29:55.726Z,101399.47
2022-11-10T12:33:16.566Z,101397.22
2022-11-10T12:36:37.700Z,101419.31
2022-11-10T12:40:02.845Z,101409.91
2022-11-10T12:43:32.350Z,101410.56
2022-11-10T12:46:55.672Z,101411.38
2022-11-10T12:50:16.613Z,101411.38
2022-11-10T12:53:39.523Z,101417.28
2022-11-10T12:57:16.176Z,101423.06
2022-11-10T13:00:55.634Z,101428.88
2022-11-10T13:04:17.630Z,101430.03
2022-11-10T13:07:38.292Z,101426.22
2022-11-10T13:11:11.361Z,101433.22
2022-11-10T13:14:35.382Z,101427.25
2022-11-10T13:17:56.402Z,101433.66
2022-11-10T13:21:17.449Z,101441.53
2022-11-10T13:24:39.605Z,101445.81
2022-11-10T13:28:00.295Z,101431.03
2022-11-10T13:31:26.907Z,101438.69
2022-11-10T13:34:47.699Z,101442.34
2022-11-10T13:38:19.178Z,101453.59
2022-11-10T13:41:45.446Z,101448.72
2022-11-10T13:45:24.881Z,101457.41
2022-11-10T13:49:21.207Z,101460.84
2022-11-10T13:52:50.471Z,101465.28
2022-11-10T13:56:23.767Z,101461.22
2022-11-10T13:59:50.429Z,101465.66
2022-11-10T14:03:29.514Z,101466.69
2022-11-10T14:06:52.010Z,101462.56
2022-11-10T14:10:20.019Z,101465.34
2022-11-10T14:13:44.057Z,101481.88
2022-11-10T14:17:04.670Z,101482.06
2022-11-10T14:20:34.600Z,101485.53
2022-11-10T14:24:11.319Z,101496.00
2022-11-10T14:27:34.265Z,101494.19
2022-11-10T14:30:55.778Z,101503.72
2022-11-10T14:34:17.678Z,101509.81
2022-11-10T14:37:43.297Z,101497.81
2022-11-10T14:41:05.610Z,101505.63
2022-11-10T14:44:27.542Z,101505.69
2022-11-10T14:47:53.426Z,101505.75
2022-11-10T14:51:15.858Z,101498.00
2022-11-10T14:54:37.113Z,101504.16
2022-11-10T14:58:10.348Z,101498.19
2022-11-10T15:01:34.684Z,101499.00
2022-11-10T15:04:57.374Z,101509.38
2022-11-10T15:08:18.214Z,101508.59
2022-11-10T15:11:40.762Z,101512.94
2022-11-10T15:15:01.307Z,101519.94
2022-11-10T15:18:24.282Z,101520.12
2022-11-10T15:21:45.318Z,101527.88
2022-11-10T15:25:13.678Z,101531.41
2022-11-10T15:28:35.308Z,101522.63
2022-11-10T15:31:59.262Z,101538.25
2022-11-10T15:35:22.676Z,101538.09
2022-11-10T15:38:43.498Z,101538.81
2022-11-10T15:42:12.577Z,101551.75
2022-11-10T15:45:33.156Z,101555.13
2022-11-10T15:48:53.779Z,101560.22
2022-11-10T15:52:16.216Z,101563.69
2022-11-10T15:55:37.111Z,101582.69
2022-11-10T15:59:02.113Z,101587.00
2022-11-10T16:02:24.505Z,101571.34
2022-11-10T16:05:45.871Z,101585.97
2022-11-10T16:09:07.002Z,101594.72
2022-11-10T16:12:29.658Z,101596.91
2022-11-10T16:15:50.848Z,101590.38
2022-11-10T16:19:12.115Z,101601.94
2022-11-10T16:22:32.843Z,101598.63
2022-11-10T16:25:54.793Z,101602.31
2022-11-10T16:29:17.163Z,101620.50
2022-11-10T16:32:37.824Z,101618.00
2022-11-10T16:35:58.371Z,101624.91
2022-11-10T16:39:19.251Z,101624.13
2022-11-10T16:42:40.298Z,101627.63
2022-11-10T16:46:05.666Z,101632.81
2022-11-10T16:49:28.714Z,101642.34
2022-11-10T16:52:49.632Z,101642.38
2022-11-10T16:56:21.029Z,101648.53
2022-11-10T16:59:42.608Z,101655.56
2022-11-10T17:03:12.085Z,101653.87
2022-11-10T17:06:32.928Z,101664.31
2022-11-10T17:09:53.688Z,101679.00
2022-11-10T17:13:14.491Z,101679.03
2022-11-10T17:16:36.540Z,101681.72
2022-11-10T17:19:59.135Z,101692.19
2022-11-10T17:23:21.687Z,101689.62
2022-11-10T17:26:43.146Z,101716.66
2022-11-10T17:30:03.964Z,101711.44
2022-11-10T17:33:25.173Z,101714.00
2022-11-10T17:36:46.766Z,101706.28
2022-11-10T17:40:19.005Z,101718.53
2022-11-10T17:43:44.338Z,101722.94
2022-11-10T17:47:06.290Z,101728.97
2022-11-10T17:50:26.914Z,101736.81
2022-11-10T17:53:47.976Z,101737.72
2022-11-10T17:57:09.971Z,101743.06
2022-11-10T18:00:30.822Z,101755.19
2022-11-10T18:03:51.453Z,101753.50
2022-11-10T18:07:12.276Z,101750.06
2022-11-10T18:10:32.710Z,101735.37
2022-11-10T18:13:53.444Z,101747.63
2022-11-10T18:17:14.235Z,101751.94
2022-11-10T18:20:35.710Z,101758.03
2022-11-10T18:23:56.285Z,101752.09
2022-11-10T18:27:17.143Z,101759.00
2022-11-10T18:30:38.036Z,101766.00
2022-11-10T18:33:58.512Z,101774.62
2022-11-10T18:37:20.888Z,101777.25
2022-11-10T18:40:41.787Z,101789.37
2022-11-10T18:44:02.752Z,101791.12
2022-11-10T18:47:23.806Z,101802.41
2022-11-10T18:50:44.499Z,101808.47
2022-11-10T18:54:05.258Z,101815.44
2022-11-10T18:57:25.971Z,101824.19
2022-11-10T19:00:46.832Z,101826.00
2022-11-10T19:04:07.696Z,101837.25
2022-11-10T19:07:29.023Z,101835.56
2022-11-10T19:10:49.563Z,101841.59
2022-11-10T19:14:10.110Z,101850.25
2022-11-10T19:17:30.978Z,101840.81
2022-11-10T19:20:51.836Z,101835.62
2022-11-10T19:24:18.191Z,101843.41
2022-11-10T19:27:46.608Z,101837.37
2022-11-10T19:31:09.365Z,101852.97
2022-11-10T19:34:31.568Z,101854.66
2022-11-10T19:37:54.059Z,101865.03
2022-11-10T19:41:19.810Z,101865.94
2022-11-10T19:44:40.426Z,101874.56
2022-11-10T19:48:01.337Z,101866.81
2022-11-10T19:51:23.253Z,101870.25
2022-11-10T19:54:44.366Z,101879.81
2022-11-10T19:58:04.860Z,101889.34
2022-11-10T20:01:26.410Z,101884.16
2022-11-10T20:05:05.888Z,101891.97
2022-11-10T20:08:26.824Z,101887.63
2022-11-10T20:11:47.684Z,101883.38
2022-11-10T20:15:08.696Z,101884.22
2022-11-10T20:18:29.406Z,101883.34
2022-11-10T20:21:50.096Z,101886.81
2022-11-10T20:25:10.612Z,101894.63
2022-11-10T20:28:32.003Z,101898.09
2022-11-10T20:31:52.899Z,101901.53
2022-11-10T20:35:13.620Z,101897.22
2022-11-10T20:38:34.902Z,101902.41
2022-11-10T20:41:55.816Z,101904.13
2022-11-10T20:45:16.852Z,101912.78
2022-11-10T20:48:37.572Z,101920.53
2022-11-10T20:51:59.835Z,101923.16
2022-11-10T20:55:43.751Z,101924.87
2022-11-10T20:59:01.476Z,101935.25
2022-11-10T21:02:22.415Z,101927.47
2022-11-10T21:05:43.221Z,101940.44
2022-11-10T21:09:05.409Z,101949.09
2022-11-10T21:12:44.421Z,101939.59
2022-11-10T21:16:06.015Z,101945.63
2022-11-10T21:19:26.741Z,101953.38
2022-11-10T21:22:47.579Z,101944.72
2022-11-10T21:26:09.296Z,101943.88
2022-11-10T21:29:30.070Z,101947.34
2022-11-10T21:32:50.773Z,101948.22
2022-11-10T21:36:11.527Z,101939.53
2022-11-10T21:39:32.645Z,101934.34
2022-11-10T21:42:54.143Z,101943.06
2022-11-10T21:46:14.839Z,101952.50
2022-11-10T21:49:35.942Z,101967.22
2022-11-10T21:52:56.466Z,101965.47
2022-11-10T21:56:17.594Z,101956.81
2022-11-10T21:59:38.519Z,101959.41
2022-11-10T22:03:00.252Z,101963.75
2022-11-10T22:06:21.519Z,101971.53
2022-11-10T22:10:00.801Z,101974.94
2022-11-10T22:13:40.457Z,101979.28
2022-11-10T22:17:20.340Z,101994.88
2022-11-10T22:20:41.199Z,101997.44
2022-11-10T22:24:20.787Z,102000.88
2022-11-10T22:27:41.787Z,101986.19
2022-11-10T22:31:06.488Z,102000.06
2022-11-10T22:34:27.177Z,102006.09
2022-11-10T22:37:48.069Z,102003.50
2022-11-10T22:41:31.757Z,102008.69
2022-11-10T22:44:52.666Z,102005.22
2022-11-10T22:48:29.799Z,101999.16
2022-11-10T22:51:51.620Z,101992.25
2022-11-10T22:55:12.243Z,101997.38
2022-11-10T22:58:32.794Z,101989.66
2022-11-10T23:01:53.907Z,101994.84
2022-11-10T23:05:14.599Z,102000.88
2022-11-10T23:08:35.556Z,101987.94
2022-11-10T23:11:56.487Z,101981.03
2022-11-10T23:15:17.199Z,101982.75
2022-11-10T23:18:38.561Z,101983.59
2022-11-10T23:21:58.995Z,101985.31
2022-11-10T23:25:19.798Z,101975.84
2022-11-10T23:28:40.677Z,101970.66
2022-11-10T23:32:01.559Z,101980.16
2022-11-10T23:35:22.377Z,101980.97
2022-11-10T23:38:43.508Z,101978.41
2022-11-10T23:42:04.223Z,101975.84
2022-11-10T23:45:29.788Z,101973.25
2022-11-10T23:48:57.910Z,101975.00
2022-11-10T23:52:18.682Z,101976.75
2022-11-10T23:55:39.486Z,101976.75
2022-11-10T23:59:00.751Z,101981.91
